createdAt,value
2023-05-25T00:00:19.822Z,0
2023-05-25T00:01:36.071Z,0
2023-05-25T00:02:52.318Z,0
2023-05-25T00:04:07.611Z,0
2023-05-25T00:05:23.864Z,0
2023-05-25T00:06:40.119Z,0
2023-05-25T00:07:56.366Z,0
2023-05-25T00:09:12.612Z,0
2023-05-25T00:10:28.866Z,0
2023-05-25T00:11:45.115Z,0
2023-05-25T00:13:01.366Z,0
2023-05-25T00:14:17.619Z,0
2023-05-25T00:15:33.866Z,0
2023-05-25T00:16:50.120Z,0
2023-05-25T00:18:06.366Z,0
2023-05-25T00:19:22.622Z,0
2023-05-25T00:20:37.913Z,0
2023-05-25T00:21:54.168Z,0
2023-05-25T00:23:10.422Z,0
2023-05-25T00:24:26.664Z,0
2023-05-25T00:25:42.920Z,0
2023-05-25T00:26:59.172Z,0
2023-05-25T00:28:15.412Z,0
2023-05-25T00:29:31.673Z,0
2023-05-25T00:30:47.916Z,0
2023-05-25T00:32:04.172Z,0
2023-05-25T00:33:20.416Z,0
2023-05-25T00:34:36.665Z,0
2023-05-25T00:35:52.926Z,0
2023-05-25T00:37:08.214Z,0
2023-05-25T00:38:24.469Z,0
2023-05-25T00:39:40.719Z,0
2023-05-25T00:40:56.966Z,0
2023-05-25T00:42:13.224Z,0
2023-05-25T00:43:29.469Z,0
2023-05-25T00:44:45.716Z,0
2023-05-25T00:46:01.963Z,0
2023-05-25T00:47:18.214Z,0
2023-05-25T00:48:34.479Z,0
2023-05-25T00:49:50.713Z,0
2023-05-25T00:51:06.968Z,0
2023-05-25T00:52:23.217Z,0
2023-05-25T00:53:38.520Z,0
2023-05-25T00:54:54.770Z,0
2023-05-25T00:56:11.020Z,0
2023-05-25T00:57:27.263Z,0
2023-05-25T00:58:43.553Z,0
2023-05-25T00:59:59.808Z,0
2023-05-25T01:01:06.000Z,0
2023-05-25T01:02:32.306Z,0
2023-05-25T01:03:48.558Z,0
2023-05-25T01:05:04.805Z,0
2023-05-25T01:06:21.061Z,0
2023-05-25T01:07:37.315Z,0
2023-05-25T01:08:53.554Z,0
2023-05-25T01:10:08.848Z,0
2023-05-25T01:11:25.106Z,0
2023-05-25T01:12:41.355Z,0
2023-05-25T01:13:57.602Z,0
2023-05-25T01:15:13.852Z,0
2023-05-25T01:16:30.113Z,0
2023-05-25T01:17:46.355Z,0
2023-05-25T01:19:02.609Z,0
2023-05-25T01:20:18.851Z,0
2023-05-25T01:21:35.105Z,0
2023-05-25T01:22:51.351Z,0
2023-05-25T01:24:07.603Z,0
2023-05-25T01:25:23.855Z,0
2023-05-25T01:26:39.152Z,0
2023-05-25T01:27:55.398Z,0
2023-05-25T01:29:11.655Z,0
2023-05-25T01:30:27.906Z,0
2023-05-25T01:31:44.156Z,0
2023-05-25T01:33:00.409Z,0
2023-05-25T01:34:16.649Z,0
2023-05-25T01:35:32.909Z,0
2023-05-25T01:36:49.159Z,0
2023-05-25T01:38:05.401Z,0
2023-05-25T01:39:21.653Z,0
2023-05-25T01:40:37.899Z,0
2023-05-25T01:41:54.149Z,0
2023-05-25T01:43:09.451Z,0
2023-05-25T01:44:25.699Z,0
2023-05-25T01:45:41.956Z,0
2023-05-25T01:46:58.203Z,0
2023-05-25T01:48:14.454Z,0
2023-05-25T01:49:30.710Z,0
2023-05-25T01:50:46.953Z,0
2023-05-25T01:52:03.200Z,0
2023-05-25T01:53:19.457Z,0
2023-05-25T01:54:35.704Z,0
2023-05-25T01:55:51.963Z,0
2023-05-25T01:57:08.198Z,0
2023-05-25T01:58:24.453Z,0
2023-05-25T01:59:39.754Z,0
2023-05-25T02:00:55.998Z,0
2023-05-25T02:02:12.250Z,0
2023-05-25T02:03:28.509Z,0
2023-05-25T02:04:44.756Z,0
2023-05-25T02:06:01.003Z,0
2023-05-25T02:07:17.252Z,0
2023-05-25T02:08:33.503Z,0
2023-05-25T02:09:49.753Z,0
2023-05-25T02:11:06.010Z,0
2023-05-25T02:12:22.258Z,0
2023-05-25T02:13:38.509Z,0
2023-05-25T02:14:54.759Z,0
2023-05-25T02:16:10.060Z,0
2023-05-25T02:17:26.307Z,0
2023-05-25T02:18:42.000Z,0
2023-05-25T02:19:58.810Z,0
2023-05-25T02:21:15.061Z,0
2023-05-25T02:22:31.305Z,0
2023-05-25T02:23:47.563Z,0
2023-05-25T02:25:03.810Z,0
2023-05-25T02:26:20.060Z,0
2023-05-25T02:27:36.316Z,0
2023-05-25T02:28:52.565Z,0
2023-05-25T02:30:08.816Z,0
2023-05-25T02:31:25.068Z,0
2023-05-25T02:32:40.368Z,0
2023-05-25T02:33:56.620Z,0
2023-05-25T02:35:12.860Z,0
2023-05-25T02:36:29.112Z,0
2023-05-25T02:37:45.365Z,0
2023-05-25T02:39:01.617Z,0
2023-05-25T02:40:17.871Z,0
2023-05-25T02:41:34.107Z,0
2023-05-25T02:42:50.370Z,0
2023-05-25T02:44:06.610Z,0
2023-05-25T02:45:22.860Z,0
2023-05-25T02:46:39.116Z,0
2023-05-25T02:47:55.379Z,0
2023-05-25T02:49:10.661Z,0
2023-05-25T02:50:26.915Z,0
2023-05-25T02:51:43.161Z,0
2023-05-25T02:52:59.428Z,0
2023-05-25T02:54:15.666Z,0
2023-05-25T02:55:31.918Z,0
2023-05-25T02:56:48.176Z,0
2023-05-25T02:58:04.424Z,0
2023-05-25T02:59:20.671Z,0
2023-05-25T03:00:36.946Z,0
2023-05-25T03:03:09.429Z,0
2023-05-25T03:04:25.664Z,0
2023-05-25T03:05:40.972Z,0
2023-05-25T03:06:57.215Z,0
2023-05-25T03:08:13.477Z,0
2023-05-25T03:09:29.724Z,0
2023-05-25T03:10:45.975Z,0
2023-05-25T03:12:02.223Z,5
2023-05-25T03:13:18.467Z,5
2023-05-25T03:14:34.715Z,5
2023-05-25T03:15:50.969Z,5
2023-05-25T03:17:07.222Z,5
2023-05-25T03:18:23.475Z,11
2023-05-25T03:19:39.714Z,11
2023-05-25T03:20:55.971Z,11
2023-05-25T03:22:11.274Z,16
2023-05-25T03:23:27.519Z,16
2023-05-25T03:24:43.776Z,22
2023-05-25T03:26:00.021Z,22
2023-05-25T03:27:16.273Z,28
2023-05-25T03:28:32.520Z,28
2023-05-25T03:29:48.772Z,33
2023-05-25T03:31:05.023Z,39
2023-05-25T03:32:21.267Z,39
2023-05-25T03:33:37.520Z,45
2023-05-25T03:34:53.770Z,50
2023-05-25T03:36:10.035Z,56
2023-05-25T03:37:26.296Z,61
2023-05-25T03:38:41.583Z,67
2023-05-25T03:39:57.835Z,73
2023-05-25T03:41:14.083Z,73
2023-05-25T03:42:30.343Z,78
2023-05-25T03:43:46.593Z,84
2023-05-25T03:45:02.839Z,95
2023-05-25T03:46:19.100Z,101
2023-05-25T03:47:35.339Z,112
2023-05-25T03:48:51.593Z,123
2023-05-25T03:50:07.852Z,135
2023-05-25T03:51:24.088Z,146
2023-05-25T03:52:40.335Z,151
2023-05-25T03:53:56.594Z,163
2023-05-25T03:55:11.903Z,174
2023-05-25T03:56:18.000Z,185
2023-05-25T03:57:44.394Z,196
2023-05-25T03:59:00.642Z,208
2023-05-25T04:00:16.892Z,219
2023-05-25T04:01:33.149Z,230
2023-05-25T04:02:48.461Z,241
2023-05-25T04:04:04.710Z,258
2023-05-25T04:05:20.969Z,275
2023-05-25T04:06:37.214Z,286
2023-05-25T04:07:53.460Z,303
2023-05-25T04:09:09.718Z,320
2023-05-25T04:10:25.967Z,331
2023-05-25T04:11:42.221Z,348
2023-05-25T04:12:58.469Z,354
2023-05-25T04:14:14.722Z,371
2023-05-25T04:15:30.970Z,388
2023-05-25T04:16:47.216Z,399
2023-05-25T04:18:03.466Z,421
2023-05-25T04:19:18.774Z,427
2023-05-25T04:20:35.020Z,444
2023-05-25T04:21:51.275Z,466
2023-05-25T04:23:07.521Z,478
2023-05-25T04:24:23.776Z,495
2023-05-25T04:25:40.021Z,506
2023-05-25T04:26:56.270Z,511
2023-05-25T04:28:12.518Z,534
2023-05-25T04:29:28.772Z,562
2023-05-25T04:30:45.015Z,579
2023-05-25T04:32:01.267Z,601
2023-05-25T04:33:17.520Z,624
2023-05-25T04:34:33.767Z,624
2023-05-25T04:35:49.078Z,635
2023-05-25T04:37:05.325Z,658
2023-05-25T04:38:21.589Z,669
2023-05-25T04:39:37.830Z,691
2023-05-25T04:40:54.085Z,708
2023-05-25T04:42:10.322Z,731
2023-05-25T04:43:26.585Z,759
2023-05-25T04:44:42.847Z,765
2023-05-25T04:45:59.081Z,781
2023-05-25T04:47:15.329Z,759
2023-05-25T04:48:31.578Z,798
2023-05-25T04:49:47.834Z,838
2023-05-25T04:51:04.091Z,871
2023-05-25T04:52:19.386Z,894
2023-05-25T04:53:35.629Z,916
2023-05-25T04:54:51.884Z,922
2023-05-25T04:56:08.125Z,928
2023-05-25T04:57:24.380Z,945
2023-05-25T04:58:40.636Z,967
2023-05-25T04:59:56.882Z,1006
2023-05-25T05:01:13.134Z,1035
2023-05-25T05:02:29.376Z,1035
2023-05-25T05:03:45.626Z,1063
2023-05-25T05:05:01.883Z,1046
2023-05-25T05:06:18.132Z,1051
2023-05-25T05:07:34.381Z,1074
2023-05-25T05:08:49.685Z,1096
2023-05-25T05:10:05.931Z,1136
2023-05-25T05:11:22.180Z,1136
2023-05-25T05:12:38.435Z,1153
2023-05-25T05:13:54.672Z,1209
2023-05-25T05:15:10.928Z,1243
2023-05-25T05:16:27.175Z,1237
2023-05-25T05:17:43.438Z,1254
2023-05-25T05:18:59.681Z,1260
2023-05-25T05:20:15.931Z,1282
2023-05-25T05:21:32.180Z,1293
2023-05-25T05:22:48.427Z,1293
2023-05-25T05:24:04.682Z,1355
2023-05-25T05:25:20.931Z,1350
2023-05-25T05:27:52.483Z,1395
2023-05-25T05:29:08.736Z,1417
2023-05-25T05:30:24.982Z,1479
2023-05-25T05:31:41.233Z,1501
2023-05-25T05:32:57.475Z,1530
2023-05-25T05:34:13.729Z,1541
2023-05-25T05:35:29.983Z,1530
2023-05-25T05:36:46.229Z,1535
2023-05-25T05:38:02.483Z,1580
2023-05-25T05:39:18.735Z,1558
2023-05-25T05:40:34.980Z,1563
2023-05-25T05:41:51.232Z,1642
2023-05-25T05:43:06.527Z,1681
2023-05-25T05:44:22.774Z,1665
2023-05-25T05:46:45.000Z,1687
2023-05-25T05:48:11.526Z,1710
2023-05-25T05:49:27.777Z,1777
2023-05-25T05:50:44.017Z,1794
2023-05-25T05:52:00.267Z,1963
2023-05-25T05:53:16.521Z,1833
2023-05-25T05:54:32.774Z,1816
2023-05-25T05:55:49.017Z,1856
2023-05-25T05:57:05.266Z,1822
2023-05-25T05:58:21.511Z,1884
2023-05-25T05:59:36.825Z,1951
2023-05-25T06:00:53.084Z,1991
2023-05-25T06:02:09.317Z,2047
2023-05-25T06:03:25.569Z,2165
2023-05-25T06:04:41.818Z,2148
2023-05-25T06:05:58.071Z,1985
2023-05-25T06:07:14.317Z,1996
2023-05-25T06:08:30.566Z,1957
2023-05-25T06:09:46.821Z,1957
2023-05-25T06:11:03.090Z,2030
2023-05-25T06:12:19.312Z,2086
2023-05-25T06:13:35.559Z,2143
2023-05-25T06:14:51.847Z,2373
2023-05-25T06:16:07.104Z,2143
2023-05-25T06:17:23.355Z,2086
2023-05-25T06:18:39.603Z,2182
2023-05-25T06:19:55.855Z,2081
2023-05-25T06:21:12.096Z,2109
2023-05-25T06:22:28.352Z,2131
2023-05-25T06:23:44.595Z,2120
2023-05-25T06:25:00.845Z,2193
2023-05-25T06:26:17.092Z,2261
2023-05-25T06:27:33.338Z,2390
2023-05-25T06:28:49.596Z,2486
2023-05-25T06:30:05.836Z,2446
2023-05-25T06:31:22.094Z,2407
2023-05-25T06:32:38.335Z,2300
2023-05-25T06:33:53.647Z,2216
2023-05-25T06:35:09.891Z,2390
2023-05-25T06:36:26.140Z,2328
2023-05-25T06:37:42.393Z,2154
2023-05-25T06:38:58.641Z,2694
2023-05-25T06:40:14.893Z,2773
2023-05-25T06:41:31.142Z,2919
2023-05-25T06:42:47.384Z,2531
2023-05-25T06:44:03.636Z,2795
2023-05-25T06:45:19.884Z,2801
2023-05-25T06:46:36.134Z,3037
2023-05-25T06:47:52.376Z,2913
2023-05-25T06:49:08.628Z,2773
2023-05-25T06:50:23.928Z,3206
2023-05-25T06:51:40.172Z,3026
2023-05-25T06:52:56.423Z,2970
2023-05-25T06:54:12.670Z,3206
2023-05-25T06:55:28.923Z,3245
2023-05-25T06:56:45.163Z,3622
2023-05-25T06:58:01.417Z,3645
2023-05-25T06:59:17.668Z,3268
2023-05-25T07:00:33.917Z,3420
2023-05-25T07:01:50.160Z,3268
2023-05-25T07:03:06.412Z,3285
2023-05-25T07:04:22.662Z,3532
2023-05-25T07:05:38.906Z,3037
2023-05-25T07:06:54.204Z,3667
2023-05-25T07:08:10.458Z,3380
2023-05-25T07:09:26.702Z,3560
2023-05-25T07:10:42.953Z,3150
2023-05-25T07:11:59.196Z,3223
2023-05-25T07:13:15.450Z,3678
2023-05-25T07:14:31.701Z,3870
2023-05-25T07:15:47.941Z,3813
2023-05-25T07:17:04.197Z,3706
2023-05-25T07:18:20.443Z,4275
2023-05-25T07:19:36.687Z,3228
2023-05-25T07:20:52.954Z,3110
2023-05-25T07:22:09.191Z,3296
2023-05-25T07:23:24.500Z,3150
2023-05-25T07:24:40.747Z,2953
2023-05-25T07:25:56.986Z,2925
2023-05-25T07:27:13.244Z,2913
2023-05-25T07:28:29.487Z,2891
2023-05-25T07:29:45.737Z,3453
2023-05-25T07:31:01.982Z,3380
2023-05-25T07:32:18.232Z,3105
2023-05-25T07:33:34.490Z,3526
2023-05-25T07:34:50.735Z,3335
2023-05-25T07:36:06.977Z,3285
2023-05-25T07:37:23.229Z,3133
2023-05-25T07:38:39.477Z,3251
2023-05-25T07:39:55.735Z,3251
2023-05-25T07:41:11.019Z,3318
2023-05-25T07:42:27.268Z,3898
2023-05-25T07:43:43.519Z,3549
2023-05-25T07:44:59.773Z,3481
2023-05-25T07:46:16.017Z,3363
2023-05-25T07:47:32.261Z,3493
2023-05-25T07:48:48.512Z,3690
2023-05-25T07:50:04.764Z,3571
2023-05-25T07:51:21.015Z,3594
2023-05-25T07:52:37.277Z,3200
2023-05-25T07:53:53.508Z,3870
2023-05-25T07:55:09.760Z,3583
2023-05-25T07:56:26.013Z,3836
2023-05-25T07:57:42.258Z,3858
2023-05-25T07:58:57.547Z,3819
2023-05-25T08:00:13.822Z,4061
2023-05-25T08:01:30.053Z,3498
2023-05-25T08:02:46.297Z,4117
2023-05-25T08:04:02.546Z,3858
2023-05-25T08:05:18.795Z,3993
2023-05-25T08:06:35.041Z,3605
2023-05-25T08:07:51.294Z,3830
2023-05-25T08:09:07.543Z,3785
2023-05-25T08:10:23.784Z,4095
2023-05-25T08:11:40.044Z,4415
2023-05-25T08:12:56.290Z,4038
2023-05-25T08:14:12.538Z,3960
2023-05-25T08:15:27.831Z,3751
2023-05-25T08:16:44.078Z,3751
2023-05-25T08:17:59.402Z,3853
2023-05-25T08:19:15.650Z,3763
2023-05-25T08:20:31.901Z,3712
2023-05-25T08:21:48.151Z,3566
2023-05-25T08:23:04.394Z,4078
2023-05-25T08:24:20.640Z,3791
2023-05-25T08:25:36.887Z,4061
2023-05-25T08:26:53.142Z,4050
2023-05-25T08:28:09.386Z,3881
2023-05-25T08:29:25.632Z,4005
2023-05-25T08:30:41.883Z,4123
2023-05-25T08:31:58.133Z,4426
2023-05-25T08:33:14.385Z,2278
2023-05-25T08:34:29.685Z,2548
2023-05-25T08:35:45.938Z,4477
2023-05-25T08:37:02.183Z,4668
2023-05-25T08:38:18.440Z,4140
2023-05-25T08:39:34.678Z,3307
2023-05-25T08:40:50.928Z,4331
2023-05-25T08:42:07.173Z,4916
2023-05-25T08:43:23.423Z,4668
2023-05-25T08:44:39.670Z,4584
2023-05-25T08:45:55.924Z,4500
2023-05-25T08:47:12.173Z,1923
2023-05-25T08:48:28.414Z,4533
2023-05-25T08:49:44.671Z,5000
2023-05-25T08:50:59.973Z,5321
2023-05-25T08:52:16.232Z,4725
2023-05-25T08:53:32.472Z,4477
2023-05-25T08:54:48.719Z,4606
2023-05-25T08:56:04.977Z,4432
2023-05-25T08:57:21.215Z,2289
2023-05-25T08:58:37.467Z,4404
2023-05-25T08:59:53.716Z,4758
2023-05-25T09:01:09.958Z,4815
2023-05-25T09:02:26.225Z,4623
2023-05-25T09:03:42.475Z,2666
2023-05-25T09:04:58.705Z,1659
2023-05-25T09:06:14.951Z,5101
2023-05-25T09:07:30.252Z,4713
2023-05-25T09:08:46.505Z,5085
2023-05-25T09:10:02.744Z,5090
2023-05-25T09:11:18.998Z,4803
2023-05-25T09:12:35.260Z,4972
2023-05-25T09:13:51.493Z,5883
2023-05-25T09:14:58.000Z,2210
2023-05-25T09:16:23.993Z,4365
2023-05-25T09:17:40.240Z,4820
2023-05-25T09:18:56.500Z,5163
2023-05-25T09:20:12.738Z,6035
2023-05-25T09:22:45.237Z,5748
2023-05-25T09:24:00.539Z,6288
2023-05-25T09:25:16.792Z,5540
2023-05-25T09:26:33.035Z,5366
2023-05-25T09:27:49.286Z,5281
2023-05-25T09:29:05.547Z,5512
2023-05-25T09:30:21.789Z,4955
2023-05-25T09:31:38.039Z,4944
2023-05-25T09:32:54.280Z,2536
2023-05-25T09:34:10.535Z,4353
2023-05-25T09:35:26.787Z,4522
2023-05-25T09:36:43.038Z,5293
2023-05-25T09:37:59.272Z,4916
2023-05-25T09:39:15.522Z,4753
2023-05-25T09:40:30.832Z,4905
2023-05-25T09:41:47.081Z,5101
2023-05-25T09:43:03.333Z,5180
2023-05-25T09:44:19.580Z,5315
2023-05-25T09:46:52.078Z,4972
2023-05-25T09:48:08.335Z,4753
2023-05-25T09:49:24.580Z,5473
2023-05-25T09:50:40.827Z,5107
2023-05-25T09:51:57.074Z,4629
2023-05-25T09:53:13.330Z,4713
2023-05-25T09:54:29.580Z,5180
2023-05-25T09:55:45.822Z,5169
2023-05-25T09:57:01.128Z,4921
2023-05-25T09:58:17.000Z,5293
2023-05-25T09:59:33.622Z,4775
2023-05-25T10:00:49.864Z,4798
2023-05-25T10:02:06.118Z,4831
2023-05-25T10:03:22.366Z,5158
2023-05-25T10:04:38.620Z,4230
2023-05-25T10:05:54.863Z,4488
2023-05-25T10:07:11.114Z,5045
2023-05-25T10:08:27.364Z,5068
2023-05-25T10:09:43.608Z,4488
2023-05-25T10:10:59.863Z,4179
2023-05-25T10:12:16.106Z,4545
2023-05-25T10:13:31.419Z,4601
2023-05-25T10:14:47.657Z,4584
2023-05-25T10:16:03.910Z,5000
2023-05-25T10:17:20.149Z,4882
2023-05-25T10:18:36.406Z,4803
2023-05-25T10:19:52.650Z,4848
2023-05-25T10:21:08.909Z,5203
2023-05-25T10:22:25.145Z,4629
2023-05-25T10:23:41.398Z,4505
2023-05-25T10:24:57.648Z,4674
2023-05-25T10:26:13.888Z,4505
2023-05-25T10:27:30.151Z,4685
2023-05-25T10:28:46.387Z,4629
2023-05-25T10:31:18.882Z,5433
2023-05-25T10:32:34.186Z,6406
2023-05-25T10:33:50.430Z,6930
2023-05-25T10:35:06.687Z,7875
2023-05-25T10:36:22.925Z,7104
2023-05-25T10:37:39.176Z,6558
2023-05-25T10:38:55.425Z,6305
2023-05-25T10:40:11.675Z,5630
2023-05-25T10:41:27.915Z,5310
2023-05-25T10:42:44.172Z,4753
2023-05-25T10:44:00.421Z,4978
2023-05-25T10:45:07.000Z,5293
2023-05-25T10:46:32.927Z,5585
2023-05-25T10:47:49.167Z,5563
2023-05-25T10:49:05.420Z,4899
2023-05-25T10:50:20.720Z,5124
2023-05-25T10:51:36.973Z,5096
2023-05-25T10:52:53.219Z,4831
2023-05-25T10:54:09.467Z,5118
2023-05-25T10:55:25.719Z,5473
2023-05-25T10:56:41.960Z,5135
2023-05-25T10:57:58.212Z,4938
2023-05-25T10:59:14.458Z,4753
2023-05-25T11:00:30.711Z,4663
2023-05-25T11:01:46.954Z,4736
2023-05-25T11:03:03.203Z,4815
2023-05-25T11:04:19.446Z,4854
2023-05-25T11:05:35.770Z,5191
2023-05-25T11:06:51.078Z,5506
2023-05-25T11:08:07.323Z,5236
2023-05-25T11:09:23.565Z,5152
2023-05-25T11:10:39.820Z,5214
2023-05-25T11:11:56.061Z,5135
2023-05-25T11:13:12.313Z,5428
2023-05-25T11:14:28.572Z,6300
2023-05-25T11:15:44.815Z,6648
2023-05-25T11:18:17.305Z,6485
2023-05-25T11:19:33.554Z,6986
2023-05-25T11:20:49.808Z,7295
2023-05-25T11:22:06.054Z,6316
2023-05-25T11:23:21.356Z,5878
2023-05-25T11:24:37.603Z,5731
2023-05-25T11:27:10.095Z,5990
2023-05-25T11:28:26.343Z,5551
2023-05-25T11:29:42.590Z,5675
2023-05-25T11:32:05.000Z,1912
2023-05-25T11:33:20.000Z,5546
2023-05-25T11:34:45.720Z,5518
2023-05-25T11:36:01.967Z,5619
2023-05-25T11:37:18.219Z,5715
2023-05-25T11:38:34.467Z,5647
2023-05-25T11:39:50.712Z,5647
2023-05-25T11:41:06.964Z,5456
2023-05-25T11:42:23.211Z,5321
2023-05-25T11:43:39.456Z,5040
2023-05-25T11:44:55.714Z,5011
2023-05-25T11:46:11.962Z,5130
2023-05-25T11:47:27.293Z,5248
2023-05-25T11:48:42.581Z,5208
2023-05-25T11:49:58.830Z,5259
2023-05-25T11:51:15.081Z,5051
2023-05-25T11:52:31.332Z,5557
2023-05-25T11:53:47.570Z,5478
2023-05-25T11:55:03.816Z,5416
2023-05-25T11:56:20.067Z,5360
2023-05-25T11:57:36.317Z,5501
2023-05-25T11:58:52.566Z,5371
2023-05-25T12:00:08.812Z,5360
2023-05-25T12:01:25.060Z,5270
2023-05-25T12:02:41.314Z,5073
2023-05-25T12:03:57.558Z,4983
2023-05-25T12:05:13.805Z,5045
2023-05-25T12:06:29.134Z,5231
2023-05-25T12:07:45.358Z,5096
2023-05-25T12:09:01.605Z,4972
2023-05-25T12:10:17.854Z,4978
2023-05-25T12:11:34.102Z,4989
2023-05-25T12:12:50.352Z,5518
2023-05-25T12:14:06.603Z,5416
2023-05-25T12:15:22.853Z,6013
2023-05-25T12:16:39.100Z,5118
2023-05-25T12:17:55.349Z,4966
2023-05-25T12:19:11.596Z,5400
2023-05-25T12:20:27.845Z,5428
2023-05-25T12:21:44.088Z,5934
2023-05-25T12:22:59.394Z,5686
2023-05-25T12:24:15.643Z,5557
2023-05-25T12:25:31.891Z,5355
2023-05-25T12:26:48.139Z,5355
2023-05-25T12:28:04.389Z,6598
2023-05-25T12:29:20.628Z,6845
2023-05-25T12:30:36.883Z,6811
2023-05-25T12:31:53.136Z,6772
2023-05-25T12:33:08.447Z,5467
2023-05-25T12:34:24.690Z,4696
2023-05-25T12:35:40.947Z,4612
2023-05-25T12:36:57.189Z,4753
2023-05-25T12:38:13.432Z,4955
2023-05-25T12:39:29.682Z,5310
2023-05-25T12:40:45.929Z,5023
2023-05-25T12:42:02.184Z,4336
2023-05-25T12:43:18.429Z,4213
2023-05-25T12:44:34.671Z,2289
2023-05-25T12:45:50.923Z,4263
2023-05-25T12:47:07.175Z,4297
2023-05-25T12:48:23.418Z,4415
2023-05-25T12:49:38.727Z,4680
2023-05-25T12:50:54.961Z,4820
2023-05-25T12:52:11.210Z,4792
2023-05-25T12:53:27.459Z,4815
2023-05-25T12:54:43.713Z,4893
2023-05-25T12:55:59.952Z,4680
2023-05-25T12:57:16.211Z,4578
2023-05-25T12:58:32.462Z,4516
2023-05-25T12:59:48.712Z,4528
2023-05-25T13:01:04.944Z,4545
2023-05-25T13:02:21.196Z,4505
2023-05-25T13:03:37.444Z,4477
2023-05-25T13:04:53.689Z,4831
2023-05-25T13:07:25.239Z,4314
2023-05-25T13:08:41.486Z,4938
2023-05-25T13:09:57.727Z,5371
2023-05-25T13:11:13.982Z,5281
2023-05-25T13:12:30.234Z,5788
2023-05-25T13:13:46.504Z,5765
2023-05-25T13:15:02.716Z,2660
2023-05-25T13:16:18.986Z,1839
2023-05-25T13:17:35.218Z,5394
2023-05-25T13:18:51.470Z,3892
2023-05-25T13:20:07.716Z,2846
2023-05-25T13:21:23.967Z,3875
2023-05-25T13:22:39.254Z,4156
2023-05-25T13:23:55.503Z,4275
2023-05-25T13:25:11.755Z,4314
2023-05-25T13:26:28.001Z,4190
2023-05-25T13:27:44.257Z,4005
2023-05-25T13:29:00.502Z,4365
2023-05-25T13:30:16.751Z,4443
2023-05-25T13:31:32.987Z,4179
2023-05-25T13:32:49.244Z,3960
2023-05-25T13:34:05.481Z,3262
2023-05-25T13:35:21.737Z,4050
2023-05-25T13:36:37.984Z,4190
2023-05-25T13:37:54.235Z,4280
2023-05-25T13:39:09.527Z,4196
2023-05-25T13:40:25.774Z,4213
2023-05-25T13:41:42.026Z,4218
2023-05-25T13:42:58.267Z,4286
2023-05-25T13:44:14.522Z,4398
2023-05-25T13:45:30.766Z,4269
2023-05-25T13:46:47.015Z,4263
2023-05-25T13:48:03.264Z,4623
2023-05-25T13:49:19.508Z,4387
2023-05-25T13:50:35.757Z,4314
2023-05-25T13:51:52.010Z,1951
2023-05-25T13:53:08.253Z,4533
2023-05-25T13:54:24.505Z,2407
2023-05-25T13:55:40.749Z,4173
2023-05-25T13:56:56.058Z,4353
2023-05-25T13:58:12.304Z,4286
2023-05-25T13:59:28.553Z,4016
2023-05-25T14:00:44.797Z,4033
2023-05-25T14:02:01.046Z,4235
2023-05-25T14:03:17.300Z,4201
2023-05-25T14:04:33.545Z,4027
2023-05-25T14:05:49.809Z,3909
2023-05-25T14:07:06.041Z,3976
2023-05-25T14:08:22.291Z,4089
2023-05-25T14:09:38.543Z,4089
2023-05-25T14:10:54.779Z,3920
2023-05-25T14:12:11.028Z,3825
2023-05-25T14:13:26.325Z,3763
2023-05-25T14:14:42.575Z,4218
2023-05-25T14:15:58.816Z,4207
2023-05-25T14:17:15.066Z,4021
2023-05-25T14:18:31.324Z,4179
2023-05-25T14:19:47.574Z,4455
2023-05-25T14:21:03.823Z,4246
2023-05-25T14:22:20.070Z,3988
2023-05-25T14:23:36.320Z,4258
2023-05-25T14:24:52.562Z,4336
2023-05-25T14:26:08.806Z,4713
2023-05-25T14:27:25.060Z,4843
2023-05-25T14:28:41.305Z,4117
2023-05-25T14:29:56.619Z,3960
2023-05-25T14:31:12.858Z,4005
2023-05-25T14:32:29.104Z,4151
2023-05-25T14:33:45.361Z,4151
2023-05-25T14:35:01.607Z,3892
2023-05-25T14:36:17.855Z,3870
2023-05-25T14:37:34.100Z,3903
2023-05-25T14:38:50.342Z,4038
2023-05-25T14:40:06.596Z,3870
2023-05-25T14:41:22.845Z,3847
2023-05-25T14:42:39.094Z,3723
2023-05-25T14:43:55.350Z,3706
2023-05-25T14:45:11.615Z,3937
2023-05-25T14:46:26.901Z,3982
2023-05-25T14:47:43.142Z,3881
2023-05-25T14:48:59.387Z,3555
2023-05-25T14:50:15.639Z,3442
2023-05-25T14:51:31.895Z,3487
2023-05-25T14:52:48.132Z,3678
2023-05-25T14:54:04.380Z,3600
2023-05-25T14:55:20.634Z,3538
2023-05-25T14:56:36.880Z,3335
2023-05-25T14:57:53.126Z,3436
2023-05-25T14:59:09.371Z,3571
2023-05-25T15:00:15.000Z,3515
2023-05-25T15:01:41.870Z,3532
2023-05-25T15:02:57.175Z,3346
2023-05-25T15:04:13.430Z,3273
2023-05-25T15:05:29.677Z,3211
2023-05-25T15:06:45.915Z,3110
2023-05-25T15:08:02.161Z,3285
2023-05-25T15:09:18.415Z,3335
2023-05-25T15:10:34.657Z,3189
2023-05-25T15:11:50.917Z,3026
2023-05-25T15:13:07.159Z,2986
2023-05-25T15:14:23.406Z,2986
2023-05-25T15:15:39.662Z,2941
2023-05-25T15:16:55.912Z,2919
2023-05-25T15:18:12.163Z,2874
2023-05-25T15:19:27.460Z,2958
2023-05-25T15:21:59.948Z,2902
2023-05-25T15:23:16.205Z,2896
2023-05-25T15:24:32.458Z,2733
2023-05-25T15:25:48.708Z,2626
2023-05-25T15:27:04.944Z,2683
2023-05-25T15:28:21.198Z,2655
2023-05-25T15:29:37.453Z,2671
2023-05-25T15:30:53.717Z,2694
2023-05-25T15:32:09.951Z,2604
2023-05-25T15:33:26.204Z,2542
2023-05-25T15:34:42.473Z,2610
2023-05-25T15:35:58.710Z,2486
2023-05-25T15:37:13.993Z,2497
2023-05-25T15:38:30.259Z,2266
2023-05-25T15:39:46.493Z,2407
2023-05-25T15:41:02.741Z,2514
2023-05-25T15:42:18.998Z,2508
2023-05-25T15:43:35.246Z,2475
2023-05-25T15:44:51.505Z,2491
2023-05-25T15:46:07.743Z,2548
2023-05-25T15:47:23.998Z,2441
2023-05-25T15:48:40.240Z,2396
2023-05-25T15:49:56.492Z,2430
2023-05-25T15:51:12.745Z,2475
2023-05-25T15:52:28.999Z,2407
2023-05-25T15:53:44.288Z,2396
2023-05-25T15:55:00.543Z,2458
2023-05-25T15:56:16.785Z,2396
2023-05-25T15:57:33.047Z,2323
2023-05-25T15:58:49.286Z,2418
2023-05-25T16:00:05.539Z,2418
2023-05-25T16:01:21.792Z,2418
2023-05-25T16:02:38.043Z,2356
2023-05-25T16:03:54.291Z,2266
2023-05-25T16:05:10.544Z,2250
2023-05-25T16:06:26.791Z,2238
2023-05-25T16:07:43.039Z,2300
2023-05-25T16:08:59.293Z,2250
2023-05-25T16:10:14.584Z,2238
2023-05-25T16:11:30.829Z,2278
2023-05-25T16:12:47.084Z,2328
2023-05-25T16:15:19.586Z,2491
2023-05-25T16:16:35.844Z,2435
2023-05-25T16:17:52.077Z,2424
2023-05-25T16:19:08.338Z,2458
2023-05-25T16:20:24.583Z,2441
2023-05-25T16:21:40.831Z,2463
2023-05-25T16:22:57.095Z,2435
2023-05-25T16:24:13.337Z,2441
2023-05-25T16:25:29.583Z,2475
2023-05-25T16:26:44.876Z,2452
2023-05-25T16:28:01.133Z,2542
2023-05-25T16:29:17.385Z,2649
2023-05-25T16:30:33.666Z,2655
2023-05-25T16:31:49.876Z,2711
2023-05-25T16:33:06.127Z,2891
2023-05-25T16:34:22.383Z,2666
2023-05-25T16:35:38.633Z,2570
2023-05-25T16:36:54.878Z,2525
2023-05-25T16:38:11.143Z,2435
2023-05-25T16:39:27.383Z,2396
2023-05-25T16:40:43.631Z,2340
2023-05-25T16:41:59.872Z,2261
2023-05-25T16:43:15.185Z,2165
2023-05-25T16:44:31.434Z,2188
2023-05-25T16:45:47.683Z,2233
2023-05-25T16:47:03.935Z,2109
2023-05-25T16:48:19.253Z,2047
2023-05-25T16:49:35.512Z,1980
2023-05-25T16:50:51.760Z,2103
2023-05-25T16:52:08.005Z,2098
2023-05-25T16:53:24.253Z,2131
2023-05-25T16:54:40.502Z,2205
2023-05-25T16:55:56.760Z,2109
2023-05-25T16:57:13.008Z,2064
2023-05-25T16:58:29.257Z,1929
2023-05-25T16:59:45.505Z,1867
2023-05-25T17:01:01.754Z,1884
2023-05-25T17:02:18.005Z,1906
2023-05-25T17:03:34.272Z,1850
2023-05-25T17:04:49.561Z,1805
2023-05-25T17:06:05.804Z,1788
2023-05-25T17:07:12.000Z,1822
2023-05-25T17:08:38.302Z,1816
2023-05-25T17:09:54.547Z,1811
2023-05-25T17:11:10.801Z,1766
2023-05-25T17:12:27.062Z,1749
2023-05-25T17:13:43.302Z,1715
2023-05-25T17:14:59.547Z,1693
2023-05-25T17:16:15.802Z,1693
2023-05-25T17:17:32.056Z,1670
2023-05-25T17:18:48.306Z,1636
2023-05-25T17:20:04.554Z,1614
2023-05-25T17:21:19.861Z,1591
2023-05-25T17:22:36.105Z,1575
2023-05-25T17:23:52.352Z,1552
2023-05-25T17:25:08.597Z,1569
2023-05-25T17:26:24.855Z,1552
2023-05-25T17:27:41.102Z,1507
2023-05-25T17:28:57.349Z,1496
2023-05-25T17:30:13.600Z,1462
2023-05-25T17:31:29.846Z,1451
2023-05-25T17:32:46.104Z,1406